Main page
METAR-TAF:

METAR-TAF

Airports :

Umeå Airport

Umeå, Sweden

latitude: 63-48N, longitude: 020-17E, elevation: 7 m

Current weather observation

The report was made 23 minutes ago, at 17:50 UTC
Wind 8 kt from the South
Temperature 15°C
Humidity 77%
Pressure 1012 hPa
Visibility 10 km or more

METAR: ESNU 151750Z AUTO 18008KT 9999 NCD 15/11 Q1012

Time: 20:13 (18:13 UTC)

Forecast

The report was made 43 minutes ago, at 17:30 UTC
Forecast valid from 15 at 18 UTC to 16 at 03 UTC
Wind 10 kt from the South
Visibility 10 km or more
no clouds below 1500 m and no cumulonimbus
Probability 40%
from 15 at 23 UTC to 16 at 03 UTC
Visibility: 0700 m
patches of fog,

TAF: ESNU 151730Z 1518/1603 18010KT CAVOK PROB40 1523/1603 0700 BCFG

Weather observations and forecasts of more than 4000 airports (METAR and TAF reports).

The available stations are represented by yellow and red dots on the map.

Hover mouse over dot to see the name of the station.

Then click to see weather observations and forecasts.

To change the map : click on the green buttons with a black cross to zoom in, on the green button with a dash to zoom out, or on the green arrows for adjacent maps.


METAR-TAF: